sensor_id;sensor_type;location;lat;lon;timestamp;pressure;altitude;pressure_sealevel;temperature;humidity
76114;BME280;64845;53.086;5.834;2023-03-23T00:02:15;100068.44;;;9.06;88.31
76114;BME280;64845;53.086;5.834;2023-03-23T00:04:41;100063.06;;;9.07;88.07
76114;BME280;64845;53.086;5.834;2023-03-23T00:07:08;100054.97;;;9.09;88.11
76114;BME280;64845;53.086;5.834;2023-03-23T00:09:33;100067.31;;;9.12;88.00
76114;BME280;64845;53.086;5.834;2023-03-23T00:12:00;100067.22;;;9.13;88.51
76114;BME280;64845;53.086;5.834;2023-03-23T00:14:31;100056.50;;;9.15;88.42
76114;BME280;64845;53.086;5.834;2023-03-23T00:17:09;100051.13;;;9.16;88.24
76114;BME280;64845;53.086;5.834;2023-03-23T00:19:39;100056.44;;;9.16;88.62
76114;BME280;64845;53.086;5.834;2023-03-23T00:22:12;100053.69;;;9.18;88.48
76114;BME280;64845;53.086;5.834;2023-03-23T00:24:38;100044.75;;;9.19;88.14
76114;BME280;64845;53.086;5.834;2023-03-23T00:27:03;100049.25;;;9.18;88.38
76114;BME280;64845;53.086;5.834;2023-03-23T00:29:29;100044.06;;;9.15;88.33
76114;BME280;64845;53.086;5.834;2023-03-23T00:31:54;100051.13;;;9.16;88.07
76114;BME280;64845;53.086;5.834;2023-03-23T00:34:22;100046.00;;;9.12;88.40
76114;BME280;64845;53.086;5.834;2023-03-23T00:36:54;100049.59;;;9.11;88.09
76114;BME280;64845;53.086;5.834;2023-03-23T00:39:23;100040.88;;;9.07;88.36
76114;BME280;64845;53.086;5.834;2023-03-23T00:41:52;100046.28;;;9.05;88.30
76114;BME280;64845;53.086;5.834;2023-03-23T00:44:18;100033.91;;;9.04;87.89
76114;BME280;64845;53.086;5.834;2023-03-23T00:46:45;100026.75;;;9.05;88.01
76114;BME280;64845;53.086;5.834;2023-03-23T00:49:17;100035.53;;;9.07;87.76
76114;BME280;64845;53.086;5.834;2023-03-23T00:51:44;100023.91;;;9.10;88.01
76114;BME280;64845;53.086;5.834;2023-03-23T00:54:10;100009.56;;;9.12;87.72
76114;BME280;64845;53.086;5.834;2023-03-23T00:56:36;100013.88;;;9.15;87.80
76114;BME280;64845;53.086;5.834;2023-03-23T00:59:02;100003.97;;;9.18;87.46
76114;BME280;64845;53.086;5.834;2023-03-23T01:01:27;99991.34;;;9.22;87.74
76114;BME280;64845;53.086;5.834;2023-03-23T01:03:53;99997.34;;;9.27;87.78
76114;BME280;64845;53.086;5.834;2023-03-23T01:06:27;99985.59;;;9.31;87.79
76114;BME280;64845;53.086;5.834;2023-03-23T01:08:52;99986.31;;;9.35;87.60
76114;BME280;64845;53.086;5.834;2023-03-23T01:11:19;99979.13;;;9.37;87.62
76114;BME280;64845;53.086;5.834;2023-03-23T01:13:46;99972.75;;;9.40;87.86
76114;BME280;64845;53.086;5.834;2023-03-23T01:16:11;99969.97;;;9.43;87.59
76114;BME280;64845;53.086;5.834;2023-03-23T01:18:38;99968.09;;;9.45;87.73
76114;BME280;64845;53.086;5.834;2023-03-23T01:21:09;99979.44;;;9.48;87.70
76114;BME280;64845;53.086;5.834;2023-03-23T01:23:36;99957.28;;;9.48;87.43
76114;BME280;64845;53.086;5.834;2023-03-23T01:26:07;99956.25;;;9.50;87.59
76114;BME280;64845;53.086;5.834;2023-03-23T01:28:36;99958.00;;;9.51;87.03
76114;BME280;64845;53.086;5.834;2023-03-23T01:31:04;99959.63;;;9.54;87.42
76114;BME280;64845;53.086;5.834;2023-03-23T01:33:31;99951.50;;;9.57;87.58
76114;BME280;64845;53.086;5.834;2023-03-23T01:35:58;99942.56;;;9.58;87.19
76114;BME280;64845;53.086;5.834;2023-03-23T01:38:23;99934.50;;;9.60;87.37
76114;BME280;64845;53.086;5.834;2023-03-23T01:40:49;99938.81;;;9.62;87.34
76114;BME280;64845;53.086;5.834;2023-03-23T01:43:15;99942.16;;;9.66;87.22
76114;BME280;64845;53.086;5.834;2023-03-23T01:45:41;99940.38;;;9.66;86.85
76114;BME280;64845;53.086;5.834;2023-03-23T01:50:45;99940.06;;;9.73;86.74
76114;BME280;64845;53.086;5.834;2023-03-23T01:53:12;99941.78;;;9.74;86.85
76114;BME280;64845;53.086;5.834;2023-03-23T01:55:40;99944.41;;;9.75;86.64
76114;BME280;64845;53.086;5.834;2023-03-23T01:58:06;99935.47;;;9.76;86.89
76114;BME280;64845;53.086;5.834;2023-03-23T02:00:33;99906.97;;;9.77;86.69
76114;BME280;64845;53.086;5.834;2023-03-23T02:03:00;99925.59;;;9.78;86.66
76114;BME280;64845;53.086;5.834;2023-03-23T02:05:32;99926.44;;;9.79;86.52
76114;BME280;64845;53.086;5.834;2023-03-23T02:08:02;99927.31;;;9.79;86.49
76114;BME280;64845;53.086;5.834;2023-03-23T02:10:31;99925.50;;;9.80;86.42
76114;BME280;64845;53.086;5.834;2023-03-23T02:13:00;99922.72;;;9.81;86.07
76114;BME280;64845;53.086;5.834;2023-03-23T02:16:17;99920.16;;;9.80;86.08
76114;BME280;64845;53.086;5.834;2023-03-23T02:18:35;99914.81;;;9.80;86.06
76114;BME280;64845;53.086;5.834;2023-03-23T02:21:26;99919.31;;;9.79;86.05
76114;BME280;64845;53.086;5.834;2023-03-23T02:24:24;99920.16;;;9.80;86.10
76114;BME280;64845;53.086;5.834;2023-03-23T02:27:00;99905.88;;;9.81;85.73
76114;BME280;64845;53.086;5.834;2023-03-23T02:35:03;99905.75;;;9.84;85.55
76114;BME280;64845;53.086;5.834;2023-03-23T02:37:48;99906.59;;;9.85;85.73
76114;BME280;64845;53.086;5.834;2023-03-23T02:40:20;99902.19;;;9.83;85.50
76114;BME280;64845;53.086;5.834;2023-03-23T02:42:49;99908.25;;;9.87;85.34
76114;BME280;64845;53.086;5.834;2023-03-23T02:45:17;99907.31;;;9.88;85.35
76114;BME280;64845;53.086;5.834;2023-03-23T02:47:45;99904.66;;;9.88;85.35
76114;BME280;64845;53.086;5.834;2023-03-23T02:50:14;99904.47;;;9.91;85.43
76114;BME280;64845;53.086;5.834;2023-03-23T02:52:43;99896.41;;;9.93;85.22
76114;BME280;64845;53.086;5.834;2023-03-23T02:55:11;99892.78;;;9.94;85.26
76114;BME280;64845;53.086;5.834;2023-03-23T02:57:37;99896.25;;;9.96;85.09
76114;BME280;64845;53.086;5.834;2023-03-23T03:00:07;99884.69;;;9.95;85.08
76114;BME280;64845;53.086;5.834;2023-03-23T03:02:44;99888.31;;;9.94;84.83
76114;BME280;64845;53.086;5.834;2023-03-23T03:18:39;99896.94;;;9.82;84.67
76114;BME280;64845;53.086;5.834;2023-03-23T03:21:09;99886.59;;;9.76;84.40
76114;BME280;64845;53.086;5.834;2023-03-23T03:23:40;99896.66;;;9.71;84.68
76114;BME280;64845;53.086;5.834;2023-03-23T03:26:10;99893.34;;;9.65;84.91
76114;BME280;64845;53.086;5.834;2023-03-23T03:28:37;99889.09;;;9.61;84.48
76114;BME280;64845;53.086;5.834;2023-03-23T03:31:04;99884.81;;;9.59;84.40
76114;BME280;64845;53.086;5.834;2023-03-23T03:33:31;99882.34;;;9.54;84.72
76114;BME280;64845;53.086;5.834;2023-03-23T03:36:01;99880.78;;;9.50;84.94
76114;BME280;64845;53.086;5.834;2023-03-23T03:38:27;99890.81;;;9.45;84.80
76114;BME280;64845;53.086;5.834;2023-03-23T03:40:54;99889.22;;;9.41;84.87
76114;BME280;64845;53.086;5.834;2023-03-23T03:43:19;99885.78;;;9.38;84.92
76114;BME280;64845;53.086;5.834;2023-03-23T03:45:45;99887.66;;;9.36;84.99
76114;BME280;64845;53.086;5.834;2023-03-23T03:48:11;99887.75;;;9.35;85.03
76114;BME280;64845;53.086;5.834;2023-03-23T03:50:37;99886.06;;;9.32;85.26
76114;BME280;64845;53.086;5.834;2023-03-23T03:53:02;99882.66;;;9.30;85.38
76114;BME280;64845;53.086;5.834;2023-03-23T03:55:28;99881.06;;;9.26;85.36
76114;BME280;64845;53.086;5.834;2023-03-23T03:57:54;99881.13;;;9.25;85.46
76114;BME280;64845;53.086;5.834;2023-03-23T04:00:20;99886.53;;;9.23;85.19
76114;BME280;64845;53.086;5.834;2023-03-23T04:02:47;99886.63;;;9.21;85.56
76114;BME280;64845;53.086;5.834;2023-03-23T04:05:17;99888.41;;;9.21;85.50
76114;BME280;64845;53.086;5.834;2023-03-23T04:07:44;99890.28;;;9.19;85.52
76114;BME280;64845;53.086;5.834;2023-03-23T04:10:11;99893.88;;;9.18;85.17
76114;BME280;64845;53.086;5.834;2023-03-23T04:12:38;99881.50;;;9.17;85.07
76114;BME280;64845;53.086;5.834;2023-03-23T04:15:04;99897.63;;;9.14;85.30
76114;BME280;64845;53.086;5.834;2023-03-23T04:17:30;99895.91;;;9.13;85.30
76114;BME280;64845;53.086;5.834;2023-03-23T04:19:56;99887.16;;;9.11;85.18
76114;BME280;64845;53.086;5.834;2023-03-23T04:22:23;99888.94;;;9.10;85.20
76114;BME280;64845;53.086;5.834;2023-03-23T04:24:57;99900.38;;;9.12;85.00
76114;BME280;64845;53.086;5.834;2023-03-23T04:27:24;99881.63;;;9.14;85.06
76114;BME280;64845;53.086;5.834;2023-03-23T04:29:50;99876.25;;;9.15;85.07
76114;BME280;64845;53.086;5.834;2023-03-23T04:32:15;99904.63;;;9.16;85.04
76114;BME280;64845;53.086;5.834;2023-03-23T04:34:43;99902.81;;;9.17;84.91
76114;BME280;64845;53.086;5.834;2023-03-23T04:37:09;99904.53;;;9.18;84.83
76114;BME280;64845;53.086;5.834;2023-03-23T04:39:34;99899.06;;;9.21;85.14
76114;BME280;64845;53.086;5.834;2023-03-23T04:42:00;99903.31;;;9.25;85.11
76114;BME280;64845;53.086;5.834;2023-03-23T04:44:26;99912.09;;;9.27;84.95
76114;BME280;64845;53.086;5.834;2023-03-23T04:46:52;99911.16;;;9.28;84.80
76114;BME280;64845;53.086;5.834;2023-03-23T04:49:19;99918.28;;;9.28;84.58
76114;BME280;64845;53.086;5.834;2023-03-23T04:51:46;99908.56;;;9.27;84.61
76114;BME280;64845;53.086;5.834;2023-03-23T04:54:12;99899.75;;;9.25;84.32
76114;BME280;64845;53.086;5.834;2023-03-23T04:56:38;99907.84;;;9.23;84.49
76114;BME280;64845;53.086;5.834;2023-03-23T04:59:03;99922.09;;;9.22;84.63
76114;BME280;64845;53.086;5.834;2023-03-23T05:01:28;99919.53;;;9.20;84.45
76114;BME280;64845;53.086;5.834;2023-03-23T05:03:54;99930.22;;;9.19;84.61
76114;BME280;64845;53.086;5.834;2023-03-23T05:06:19;99905.56;;;9.15;84.03
76114;BME280;64845;53.086;5.834;2023-03-23T05:08:45;99920.75;;;9.13;84.09
76114;BME280;64845;53.086;5.834;2023-03-23T05:11:11;99919.09;;;9.11;84.04
76114;BME280;64845;53.086;5.834;2023-03-23T05:13:37;99933.34;;;9.10;84.31
76114;BME280;64845;53.086;5.834;2023-03-23T05:16:05;99928.16;;;9.06;84.10
76114;BME280;64845;53.086;5.834;2023-03-23T05:18:31;99940.69;;;9.04;83.90
76114;BME280;64845;53.086;5.834;2023-03-23T05:21:02;99939.09;;;9.00;84.04
76114;BME280;64845;53.086;5.834;2023-03-23T05:23:29;99932.91;;;9.00;83.85
76114;BME280;64845;53.086;5.834;2023-03-23T05:25:57;99939.19;;;8.99;83.90
76114;BME280;64845;53.086;5.834;2023-03-23T05:28:26;99937.66;;;8.93;83.61
76114;BME280;64845;53.086;5.834;2023-03-23T05:30:52;99952.78;;;8.92;83.57
76114;BME280;64845;53.086;5.834;2023-03-23T05:33:19;99943.94;;;8.92;83.55
76114;BME280;64845;53.086;5.834;2023-03-23T05:35:46;99953.78;;;8.90;83.60
76114;BME280;64845;53.086;5.834;2023-03-23T05:38:12;99957.31;;;8.90;83.73
76114;BME280;64845;53.086;5.834;2023-03-23T05:40:41;99974.22;;;8.89;83.39
76114;BME280;64845;53.086;5.834;2023-03-23T05:43:07;99976.88;;;8.89;83.61
76114;BME280;64845;53.086;5.834;2023-03-23T05:45:33;99968.97;;;8.88;83.25
76114;BME280;64845;53.086;5.834;2023-03-23T05:47:59;99970.75;;;8.87;83.15
76114;BME280;64845;53.086;5.834;2023-03-23T05:50:24;99965.44;;;8.87;83.30
76114;BME280;64845;53.086;5.834;2023-03-23T05:52:50;99992.94;;;8.88;83.20
76114;BME280;64845;53.086;5.834;2023-03-23T05:55:16;100015.97;;;8.89;83.34
76114;BME280;64845;53.086;5.834;2023-03-23T05:57:41;99989.34;;;8.89;83.30
76114;BME280;64845;53.086;5.834;2023-03-23T06:00:08;99992.34;;;8.81;83.35
76114;BME280;64845;53.086;5.834;2023-03-23T06:02:40;99984.75;;;8.72;82.96
76114;BME280;64845;53.086;5.834;2023-03-23T06:05:10;99996.81;;;8.60;82.92
76114;BME280;64845;53.086;5.834;2023-03-23T06:07:36;99989.34;;;8.47;82.58
76114;BME280;64845;53.086;5.834;2023-03-23T06:10:04;99992.34;;;8.40;82.62
76114;BME280;64845;53.086;5.834;2023-03-23T06:12:30;99988.16;;;8.34;82.22
76114;BME280;64845;53.086;5.834;2023-03-23T06:14:56;99971.53;;;8.29;82.29
76114;BME280;64845;53.086;5.834;2023-03-23T06:17:22;99996.41;;;8.28;82.52
76114;BME280;64845;53.086;5.834;2023-03-23T06:19:47;99987.56;;;8.27;82.94
76114;BME280;64845;53.086;5.834;2023-03-23T06:22:16;99995.59;;;8.26;82.80
76114;BME280;64845;53.086;5.834;2023-03-23T06:24:42;99996.63;;;8.23;82.66
76114;BME280;64845;53.086;5.834;2023-03-23T06:27:09;99998.41;;;8.23;82.52
76114;BME280;64845;53.086;5.834;2023-03-23T06:29:34;100001.97;;;8.22;82.47
76114;BME280;64845;53.086;5.834;2023-03-23T06:32:01;100008.09;;;8.24;82.41
76114;BME280;64845;53.086;5.834;2023-03-23T06:34:28;100012.41;;;8.26;82.74
76114;BME280;64845;53.086;5.834;2023-03-23T06:36:55;100021.16;;;8.30;82.25
76114;BME280;64845;53.086;5.834;2023-03-23T06:39:21;100026.19;;;8.36;82.65
76114;BME280;64845;53.086;5.834;2023-03-23T06:41:47;100027.78;;;8.40;82.76
76114;BME280;64845;53.086;5.834;2023-03-23T06:44:13;100037.38;;;8.44;83.07
76114;BME280;64845;53.086;5.834;2023-03-23T06:46:39;100041.66;;;8.49;82.65
76114;BME280;64845;53.086;5.834;2023-03-23T06:49:05;100050.38;;;8.52;83.18
76114;BME280;64845;53.086;5.834;2023-03-23T06:51:31;100052.91;;;8.55;83.10
76114;BME280;64845;53.086;5.834;2023-03-23T06:53:56;100053.63;;;8.59;83.29
76114;BME280;64845;53.086;5.834;2023-03-23T06:56:23;100058.03;;;8.60;82.98
76114;BME280;64845;53.086;5.834;2023-03-23T06:58:48;100057.91;;;8.63;83.12
76114;BME280;64845;53.086;5.834;2023-03-23T07:01:14;100062.16;;;8.67;83.45
76114;BME280;64845;53.086;5.834;2023-03-23T07:03:40;100061.22;;;8.68;83.12
76114;BME280;64845;53.086;5.834;2023-03-23T07:06:06;100053.16;;;8.70;83.12
76114;BME280;64845;53.086;5.834;2023-03-23T07:08:32;100063.69;;;8.73;83.07
76114;BME280;64845;53.086;5.834;2023-03-23T07:10:57;100063.56;;;8.76;83.45
76114;BME280;64845;53.086;5.834;2023-03-23T07:13:23;100073.19;;;8.79;83.01
76114;BME280;64845;53.086;5.834;2023-03-23T07:15:49;100064.28;;;8.80;83.29
76114;BME280;64845;53.086;5.834;2023-03-23T07:18:16;100058.81;;;8.83;83.27
76114;BME280;64845;53.086;5.834;2023-03-23T07:20:41;100059.63;;;8.85;82.97
76114;BME280;64845;53.086;5.834;2023-03-23T07:23:07;100068.28;;;8.90;83.29
76114;BME280;64845;53.086;5.834;2023-03-23T07:25:34;100060.13;;;8.93;83.40
76114;BME280;64845;53.086;5.834;2023-03-23T07:28:00;100069.72;;;8.97;83.13
76114;BME280;64845;53.086;5.834;2023-03-23T07:30:26;100087.41;;;8.98;83.36
76114;BME280;64845;53.086;5.834;2023-03-23T07:32:52;100081.16;;;8.99;83.41
76114;BME280;64845;53.086;5.834;2023-03-23T07:35:18;100074.09;;;8.98;83.12
76114;BME280;64845;53.086;5.834;2023-03-23T07:37:44;100086.63;;;8.96;83.01
76114;BME280;64845;53.086;5.834;2023-03-23T07:40:10;100088.47;;;8.94;82.78
76114;BME280;64845;53.086;5.834;2023-03-23T07:42:51;100079.72;;;8.92;82.98
76114;BME280;64845;53.086;5.834;2023-03-23T07:45:17;100091.34;;;8.89;83.18
76114;BME280;64845;53.086;5.834;2023-03-23T07:47:42;100081.63;;;8.88;82.78
76114;BME280;64845;53.086;5.834;2023-03-23T07:50:08;100087.75;;;8.90;83.02
76114;BME280;64845;53.086;5.834;2023-03-23T07:52:36;100088.63;;;8.91;82.93
76114;BME280;64845;53.086;5.834;2023-03-23T07:55:03;100086.75;;;8.93;83.17
76114;BME280;64845;53.086;5.834;2023-03-23T07:57:29;100101.75;;;8.96;82.80
76114;BME280;64845;53.086;5.834;2023-03-23T07:59:56;100100.72;;;8.98;82.90
76114;BME280;64845;53.086;5.834;2023-03-23T08:02:22;100110.44;;;8.99;82.86
76114;BME280;64845;53.086;5.834;2023-03-23T08:04:48;100103.25;;;9.01;82.80
76114;BME280;64845;53.086;5.834;2023-03-23T08:07:14;100100.59;;;9.01;82.43
76114;BME280;64845;53.086;5.834;2023-03-23T08:09:40;100091.81;;;8.99;82.59
76114;BME280;64845;53.086;5.834;2023-03-23T08:12:06;100102.47;;;8.99;82.60
76114;BME280;64845;53.086;5.834;2023-03-23T08:14:31;100111.38;;;8.98;82.48
76114;BME280;64845;53.086;5.834;2023-03-23T08:16:57;100111.34;;;9.00;82.71
76114;BME280;64845;53.086;5.834;2023-03-23T08:19:24;100113.13;;;8.99;82.33
76114;BME280;64845;53.086;5.834;2023-03-23T08:21:50;100104.31;;;8.97;82.56
76114;BME280;64845;53.086;5.834;2023-03-23T08:24:16;100112.97;;;9.02;82.50
76114;BME280;64845;53.086;5.834;2023-03-23T08:26:41;100119.78;;;9.10;82.36
76114;BME280;64845;53.086;5.834;2023-03-23T08:29:07;100123.88;;;9.17;82.41
76114;BME280;64845;53.086;5.834;2023-03-23T08:31:33;100127.94;;;9.26;82.25
76114;BME280;64845;53.086;5.834;2023-03-23T08:34:01;100132.91;;;9.33;82.15
76114;BME280;64845;53.086;5.834;2023-03-23T08:36:30;100135.31;;;9.40;82.24
76114;BME280;64845;53.086;5.834;2023-03-23T08:38:55;100127.31;;;9.40;81.86
76114;BME280;64845;53.086;5.834;2023-03-23T08:41:21;100128.81;;;9.45;81.93
76114;BME280;64845;53.086;5.834;2023-03-23T08:43:47;100134.91;;;9.49;82.24
76114;BME280;64845;53.086;5.834;2023-03-23T08:46:12;100145.25;;;9.55;81.92
76114;BME280;64845;53.086;5.834;2023-03-23T08:48:38;100134.53;;;9.57;82.03
76114;BME280;64845;53.086;5.834;2023-03-23T08:51:05;100131.75;;;9.60;81.40
76114;BME280;64845;53.086;5.834;2023-03-23T08:53:31;100142.19;;;9.64;81.64
76114;BME280;64845;53.086;5.834;2023-03-23T08:56:07;100153.41;;;9.71;81.73
76114;BME280;64845;53.086;5.834;2023-03-23T08:58:37;100155.84;;;9.76;81.21
76114;BME280;64845;53.086;5.834;2023-03-23T09:01:04;100143.31;;;9.78;81.11
76114;BME280;64845;53.086;5.834;2023-03-23T09:03:32;100154.56;;;9.85;80.89
76114;BME280;64845;53.086;5.834;2023-03-23T09:05:59;100152.63;;;9.88;80.76
76114;BME280;64845;53.086;5.834;2023-03-23T09:08:25;100150.03;;;9.87;80.67
76114;BME280;64845;53.086;5.834;2023-03-23T09:10:51;100147.44;;;9.85;80.83
76114;BME280;64845;53.086;5.834;2023-03-23T09:13:17;100137.00;;;9.80;80.47
76114;BME280;64845;53.086;5.834;2023-03-23T09:15:42;100152.13;;;9.80;80.36
76114;BME280;64845;53.086;5.834;2023-03-23T09:18:07;100153.00;;;9.80;80.19
76114;BME280;64845;53.086;5.834;2023-03-23T09:20:33;100163.31;;;9.88;80.25
76114;BME280;64845;53.086;5.834;2023-03-23T09:22:59;100163.94;;;9.93;80.38
76114;BME280;64845;53.086;5.834;2023-03-23T09:25:26;100159.34;;;9.97;80.06
76114;BME280;64845;53.086;5.834;2023-03-23T09:27:55;100167.69;;;10.08;79.94
76114;BME280;64845;53.086;5.834;2023-03-23T09:30:23;100172.72;;;10.15;79.75
76114;BME280;64845;53.086;5.834;2023-03-23T09:32:49;100168.97;;;10.19;79.39
76114;BME280;64845;53.086;5.834;2023-03-23T09:35:15;100169.69;;;10.22;79.30
76114;BME280;64845;53.086;5.834;2023-03-23T09:37:42;100173.00;;;10.27;78.99
76114;BME280;64845;53.086;5.834;2023-03-23T09:40:15;100173.44;;;10.37;79.07
76114;BME280;64845;53.086;5.834;2023-03-23T09:48:54;100176.44;;;10.49;78.49
76114;BME280;64845;53.086;5.834;2023-03-23T09:51:42;100192.06;;;10.39;78.28
76114;BME280;64845;53.086;5.834;2023-03-23T09:54:22;100193.41;;;10.28;77.65
76114;BME280;64845;53.086;5.834;2023-03-23T09:56:50;100186.72;;;10.20;77.58
76114;BME280;64845;53.086;5.834;2023-03-23T09:59:39;100190.09;;;10.23;77.24
76114;BME280;64845;53.086;5.834;2023-03-23T10:02:18;100196.22;;;10.25;77.39
76114;BME280;64845;53.086;5.834;2023-03-23T10:04:49;100187.91;;;10.32;77.11
76114;BME280;64845;53.086;5.834;2023-03-23T10:07:20;100187.41;;;10.42;76.77
76114;BME280;64845;53.086;5.834;2023-03-23T10:09:49;100192.19;;;10.55;76.72
76114;BME280;64845;53.086;5.834;2023-03-23T10:12:27;100190.53;;;10.70;76.95
76114;BME280;64845;53.086;5.834;2023-03-23T10:15:12;100184.59;;;10.82;77.23
76114;BME280;64845;53.086;5.834;2023-03-23T10:17:52;100189.78;;;10.85;77.01
76114;BME280;64845;53.086;5.834;2023-03-23T10:20:43;100190.78;;;10.83;76.59
76114;BME280;64845;53.086;5.834;2023-03-23T10:23:33;100192.84;;;10.78;76.62
76114;BME280;64845;53.086;5.834;2023-03-23T10:28:47;100200.78;;;10.60;76.32
76114;BME280;64845;53.086;5.834;2023-03-23T10:31:22;100191.91;;;10.42;76.14
76114;BME280;64845;53.086;5.834;2023-03-23T10:33:50;100193.03;;;10.36;75.70
76114;BME280;64845;53.086;5.834;2023-03-23T10:36:24;100199.47;;;10.32;75.72
76114;BME280;64845;53.086;5.834;2023-03-23T10:41:25;100199.38;;;10.34;75.86
76114;BME280;64845;53.086;5.834;2023-03-23T10:43:51;100203.63;;;10.38;75.59
76114;BME280;64845;53.086;5.834;2023-03-23T10:46:29;100199.53;;;10.50;75.30
76114;BME280;64845;53.086;5.834;2023-03-23T10:48:59;100204.50;;;10.57;75.31
76114;BME280;64845;53.086;5.834;2023-03-23T10:51:34;100211.41;;;10.62;75.05
76114;BME280;64845;53.086;5.834;2023-03-23T10:54:03;100198.31;;;10.75;74.99
76114;BME280;64845;53.086;5.834;2023-03-23T10:56:41;100204.22;;;10.81;74.65
76114;BME280;64845;53.086;5.834;2023-03-23T10:59:39;100204.63;;;10.91;74.64
76114;BME280;64845;53.086;5.834;2023-03-23T11:02:02;100212.88;;;11.04;74.37
76114;BME280;64845;53.086;5.834;2023-03-23T11:04:29;100212.88;;;11.22;74.34
76114;BME280;64845;53.086;5.834;2023-03-23T11:07:00;100197.59;;;11.41;74.05
76114;BME280;64845;53.086;5.834;2023-03-23T11:09:50;100210.78;;;11.62;74.12
76114;BME280;64845;53.086;5.834;2023-03-23T11:12:17;100219.59;;;11.80;73.77
76114;BME280;64845;53.086;5.834;2023-03-23T11:14:44;100196.94;;;11.87;73.44
76114;BME280;64845;53.086;5.834;2023-03-23T11:17:26;100218.56;;;12.00;73.48
76114;BME280;64845;53.086;5.834;2023-03-23T11:19:53;100208.13;;;12.12;73.13
76114;BME280;64845;53.086;5.834;2023-03-23T11:22:25;100211.50;;;12.15;72.74
76114;BME280;64845;53.086;5.834;2023-03-23T11:24:56;100207.84;;;12.16;72.25
76114;BME280;64845;53.086;5.834;2023-03-23T11:27:24;100217.09;;;12.11;71.63
76114;BME280;64845;53.086;5.834;2023-03-23T11:29:54;100218.13;;;12.08;71.07
76114;BME280;64845;53.086;5.834;2023-03-23T11:32:25;100217.88;;;12.13;70.90
76114;BME280;64845;53.086;5.834;2023-03-23T11:34:59;100228.84;;;12.08;70.71
76114;BME280;64845;53.086;5.834;2023-03-23T11:37:35;100219.34;;;12.02;70.06
76114;BME280;64845;53.086;5.834;2023-03-23T11:40:14;100208.53;;;12.04;70.38
76114;BME280;64845;53.086;5.834;2023-03-23T11:42:48;100218.31;;;12.05;69.95
76114;BME280;64845;53.086;5.834;2023-03-23T11:45:21;100216.31;;;12.08;70.05
76114;BME280;64845;53.086;5.834;2023-03-23T11:47:56;100235.75;;;12.12;69.93
76114;BME280;64845;53.086;5.834;2023-03-23T11:50:26;100221.34;;;12.15;69.63
76114;BME280;64845;53.086;5.834;2023-03-23T11:53:02;100224.34;;;12.24;69.59
76114;BME280;64845;53.086;5.834;2023-03-23T11:58:16;100230.94;;;12.35;69.40
76114;BME280;64845;53.086;5.834;2023-03-23T12:00:53;100237.16;;;12.35;69.07
76114;BME280;64845;53.086;5.834;2023-03-23T12:03:35;100244.84;;;12.42;69.15
76114;BME280;64845;53.086;5.834;2023-03-23T12:06:09;100238.69;;;12.39;68.70
76114;BME280;64845;53.086;5.834;2023-03-23T12:11:26;100241.44;;;12.38;68.45
76114;BME280;64845;53.086;5.834;2023-03-23T12:19:24;100242.84;;;12.45;68.49
76114;BME280;64845;53.086;5.834;2023-03-23T12:22:16;100232.31;;;12.42;68.22
76114;BME280;64845;53.086;5.834;2023-03-23T12:25:04;100250.53;;;12.35;68.05
76114;BME280;64845;53.086;5.834;2023-03-23T12:27:47;100256.41;;;12.42;68.21
76114;BME280;64845;53.086;5.834;2023-03-23T12:30:41;100248.97;;;12.47;68.56
76114;BME280;64845;53.086;5.834;2023-03-23T12:44:09;100247.69;;;12.54;68.39
76114;BME280;64845;53.086;5.834;2023-03-23T12:49:24;100256.56;;;12.55;68.17
76114;BME280;64845;53.086;5.834;2023-03-23T12:52:20;100245.41;;;12.47;67.66
76114;BME280;64845;53.086;5.834;2023-03-23T12:57:32;100229.19;;;12.50;67.90
76114;BME280;64845;53.086;5.834;2023-03-23T13:00:12;100220.97;;;12.69;67.97
76114;BME280;64845;53.086;5.834;2023-03-23T13:07:56;100224.44;;;13.02;67.24
76114;BME280;64845;53.086;5.834;2023-03-23T13:10:33;100230.84;;;12.99;66.73
76114;BME280;64845;53.086;5.834;2023-03-23T13:13:00;100223.19;;;12.93;66.67
76114;BME280;64845;53.086;5.834;2023-03-23T13:15:44;100231.78;;;12.98;66.86
76114;BME280;64845;53.086;5.834;2023-03-23T13:18:51;100219.00;;;13.03;67.06
76114;BME280;64845;53.086;5.834;2023-03-23T13:21:20;100220.72;;;13.04;67.11
76114;BME280;64845;53.086;5.834;2023-03-23T13:23:50;100235.66;;;13.08;66.93
76114;BME280;64845;53.086;5.834;2023-03-23T13:26:21;100222.25;;;13.08;67.17
76114;BME280;64845;53.086;5.834;2023-03-23T13:34:03;100218.75;;;13.22;67.02
76114;BME280;64845;53.086;5.834;2023-03-23T13:36:30;100211.84;;;13.18;67.10
76114;BME280;64845;53.086;5.834;2023-03-23T13:38:58;100225.25;;;13.18;67.15
76114;BME280;64845;53.086;5.834;2023-03-23T13:41:25;100225.47;;;12.99;67.15
76114;BME280;64845;53.086;5.834;2023-03-23T13:43:51;100210.16;;;13.01;67.21
76114;BME280;64845;53.086;5.834;2023-03-23T13:48:45;100222.16;;;13.10;67.03
76114;BME280;64845;53.086;5.834;2023-03-23T13:51:47;100233.19;;;12.89;66.93
76114;BME280;64845;53.086;5.834;2023-03-23T13:56:56;100231.75;;;12.83;67.15
76114;BME280;64845;53.086;5.834;2023-03-23T13:59:45;100248.75;;;12.98;67.13
76114;BME280;64845;53.086;5.834;2023-03-23T14:02:41;100236.63;;;13.07;67.02
76114;BME280;64845;53.086;5.834;2023-03-23T14:10:59;100219.03;;;13.18;66.45
76114;BME280;64845;53.086;5.834;2023-03-23T14:14:03;100229.06;;;13.14;66.44
76114;BME280;64845;53.086;5.834;2023-03-23T14:16:39;100239.78;;;13.14;66.39
76114;BME280;64845;53.086;5.834;2023-03-23T14:21:56;100237.41;;;13.09;66.42
76114;BME280;64845;53.086;5.834;2023-03-23T14:29:28;100224.84;;;13.10;66.34
76114;BME280;64845;53.086;5.834;2023-03-23T14:31:58;100222.34;;;13.07;66.08
76114;BME280;64845;53.086;5.834;2023-03-23T14:34:26;100212.00;;;13.00;65.99
76114;BME280;64845;53.086;5.834;2023-03-23T14:36:55;100200.13;;;13.05;65.96
76114;BME280;64845;53.086;5.834;2023-03-23T14:39:25;100202.81;;;13.05;65.78
76114;BME280;64845;53.086;5.834;2023-03-23T14:41:53;100195.81;;;13.02;65.68
76114;BME280;64845;53.086;5.834;2023-03-23T14:44:33;100206.84;;;13.12;65.54